Time;durP1;ratioP1;P1;durP2;ratioP2;P2;SDS_P1;SDS_P2;PMS_P1;PMS_P2;Temp;Humidity;BMP_temperature;BMP_pressure;BME280_temperature;BME280_humidity;BME280_pressure;Samples;Min_cycle;Max_cycle;Signal;HPM_P1;HPM_P2
2021/10/18 00:01:15;;;;;;;9.93;7.12;;;;;;;9.65;77.37;101393.29;1681739;82;21062;-72
2021/10/18 00:03:41;;;;;;;13.13;6.47;;;;;;;9.66;77.42;101396.30;1675254;84;20875;-72
2021/10/18 00:06:06;;;;;;;8.23;6.67;;;;;;;9.67;77.44;101395.87;1686042;82;20961;-72
2021/10/18 00:08:33;;;;;;;10.53;6.60;;;;;;;9.66;77.48;101391.56;1687853;83;21530;-72
2021/10/18 00:10:59;;;;;;;17.57;7.15;;;;;;;9.67;77.53;101390.28;1698395;83;21085;-72
2021/10/18 00:13:25;;;;;;;11.03;7.27;;;;;;;9.68;77.56;101397.16;1694549;83;20887;-72
2021/10/18 00:15:51;;;;;;;14.17;6.33;;;;;;;9.68;77.53;101396.30;1690340;83;20895;-72
2021/10/18 00:18:17;;;;;;;11.30;7.20;;;;;;;9.69;77.62;101401.90;1697666;83;21099;-72
2021/10/18 00:20:43;;;;;;;9.20;6.73;;;;;;;9.70;77.64;101397.16;1696451;82;21044;-72
2021/10/18 00:23:11;;;;;;;9.90;6.10;;;;;;;9.70;77.68;101396.73;1685071;84;21569;-72
2021/10/18 00:25:37;;;;;;;10.83;6.53;;;;;;;9.70;77.70;101398.02;1692270;83;21088;-72
2021/10/18 00:28:04;;;;;;;10.83;6.50;;;;;;;9.71;77.70;101402.33;1697026;83;21077;-72
2021/10/18 00:30:32;;;;;;;9.20;6.22;;;;;;;9.71;77.71;101399.75;1669447;83;21022;-72
2021/10/18 00:32:58;;;;;;;16.15;6.40;;;;;;;9.72;77.76;101404.05;1683979;83;21062;-72
2021/10/18 00:35:24;;;;;;;10.72;7.20;;;;;;;9.72;77.76;101391.14;1694233;84;21101;-72
2021/10/18 00:37:50;;;;;;;11.95;6.58;;;;;;;9.70;77.83;101395.45;1684429;83;21032;-72
2021/10/18 00:40:16;;;;;;;12.45;7.35;;;;;;;9.70;77.83;101400.61;1689178;83;21112;-72
2021/10/18 00:42:43;;;;;;;13.18;6.83;;;;;;;9.70;77.91;101398.02;1682725;83;21024;-71
2021/10/18 00:45:10;;;;;;;13.10;7.10;;;;;;;9.70;77.94;101398.02;1687927;83;28200;-71
2021/10/18 00:47:37;;;;;;;11.12;8.05;;;;;;;9.69;77.95;101397.59;1673724;84;21065;-71
2021/10/18 00:50:06;;;;;;;13.50;7.47;;;;;;;9.69;77.99;101392.43;1695525;82;21061;-71
2021/10/18 00:52:33;;;;;;;9.88;7.72;;;;;;;9.70;78.03;101396.73;1695102;83;21103;-71
2021/10/18 00:55:00;;;;;;;10.90;7.78;;;;;;;9.69;78.01;101395.02;1680912;82;20958;-72
2021/10/18 00:57:26;;;;;;;14.00;8.17;;;;;;;9.71;78.06;101396.30;1672875;84;21045;-72
2021/10/18 00:59:52;;;;;;;12.87;8.23;;;;;;;9.71;78.09;101395.02;1681770;82;21736;-72
2021/10/18 01:02:19;;;;;;;14.23;7.93;;;;;;;9.73;78.12;101395.87;1697421;82;21045;-72
2021/10/18 01:04:45;;;;;;;13.13;8.38;;;;;;;9.73;78.12;101393.30;1676578;84;20950;-72
2021/10/18 01:07:12;;;;;;;14.20;8.55;;;;;;;9.73;78.15;101396.73;1695270;83;21388;-72
2021/10/18 01:09:38;;;;;;;19.50;9.03;;;;;;;9.73;78.19;101398.02;1699304;83;20854;-72
2021/10/18 01:12:05;;;;;;;13.47;8.97;;;;;;;9.73;78.19;101399.75;1678725;84;20925;-72
2021/10/18 01:14:31;;;;;;;13.00;9.18;;;;;;;9.72;78.21;101402.77;1691053;82;20930;-72
2021/10/18 01:17:06;;;;;;;16.05;8.93;;;;;;;9.72;78.24;101404.48;1693497;82;20886;-72
2021/10/18 01:19:32;;;;;;;16.70;8.75;;;;;;;9.72;78.31;101400.18;1700530;83;20949;-72
2021/10/18 01:22:02;;;;;;;13.10;8.43;;;;;;;9.74;78.34;101402.77;1689237;83;20993;-72
2021/10/18 01:24:32;;;;;;;14.03;9.23;;;;;;;9.74;78.38;101401.47;1677605;83;20965;-72
2021/10/18 01:26:58;;;;;;;14.25;8.88;;;;;;;9.74;78.40;101404.91;1690770;83;21556;-72
2021/10/18 01:29:24;;;;;;;15.48;9.03;;;;;;;9.75;78.40;101404.48;1684106;83;21326;-72
2021/10/18 01:31:51;;;;;;;18.07;9.58;;;;;;;9.76;78.46;101408.36;1696537;83;21039;-72
2021/10/18 01:34:18;;;;;;;17.92;10.23;;;;;;;9.77;78.49;101405.34;1694926;83;25392;-72
2021/10/18 01:36:44;;;;;;;;;;;;;;;9.77;78.54;101406.64;1691282;83;20967;-72
2021/10/18 01:39:10;;;;;;;12.82;8.53;;;;;;;9.78;78.83;101412.23;1688877;84;20978;-72
2021/10/18 01:41:36;;;;;;;17.87;9.80;;;;;;;9.76;78.64;101413.52;1689851;82;20898;-72
2021/10/18 01:44:02;;;;;;;18.03;9.70;;;;;;;9.77;78.64;101412.66;1696360;83;21676;-72
2021/10/18 01:46:28;;;;;;;16.52;10.43;;;;;;;9.75;78.65;101411.80;1698141;83;21091;-72
2021/10/18 01:48:57;;;;;;;16.12;11.22;;;;;;;9.74;78.71;101403.63;1681560;82;21458;-72
2021/10/18 01:51:23;;;;;;;17.65;10.75;;;;;;;9.72;78.75;101409.22;1686575;84;21009;-72
2021/10/18 01:53:49;;;;;;;19.50;10.87;;;;;;;9.72;78.79;101408.36;1698374;83;20965;-72
2021/10/18 01:56:15;;;;;;;20.53;11.57;;;;;;;9.72;78.88;101411.80;1692958;83;21707;-72
2021/10/18 01:58:41;;;;;;;14.33;10.30;;;;;;;9.73;78.84;101417.83;1682475;83;21009;-72
2021/10/18 02:01:07;;;;;;;18.43;11.37;;;;;;;9.72;78.91;101417.39;1679625;83;21549;-72
2021/10/18 02:03:32;;;;;;;19.93;11.53;;;;;;;9.71;78.92;101422.99;1684154;83;21009;-72
2021/10/18 02:05:59;;;;;;;21.43;12.13;;;;;;;9.69;78.90;101418.25;1689465;83;21037;-72
2021/10/18 02:08:25;;;;;;;19.90;11.70;;;;;;;9.70;78.94;101419.11;1691751;83;21482;-72
2021/10/18 02:10:50;;;;;;;18.23;10.37;;;;;;;9.69;79.01;101422.12;1688582;83;20915;-72
2021/10/18 02:13:17;;;;;;;17.97;11.50;;;;;;;9.70;79.08;101422.98;1694250;83;21606;-72
2021/10/18 02:15:43;;;;;;;22.67;12.40;;;;;;;9.69;79.06;101422.12;1687344;83;21033;-72
2021/10/18 02:18:10;;;;;;;20.75;12.47;;;;;;;9.69;79.06;101425.14;1696542;83;20962;-72
2021/10/18 02:20:36;;;;;;;;;;;;;;;9.69;79.11;101427.72;1703315;83;21488;-72
2021/10/18 02:23:02;;;;;;;15.63;11.15;;;;;;;9.70;79.37;101423.85;1709432;82;20795;-71
2021/10/18 02:25:28;;;;;;;19.20;11.80;;;;;;;9.70;79.21;101426.86;1684686;84;20886;-71
2021/10/18 02:27:54;;;;;;;20.53;12.80;;;;;;;9.70;79.21;101430.73;1699192;83;21395;-71
2021/10/18 02:30:21;;;;;;;22.30;13.17;;;;;;;9.68;79.24;101425.57;1694310;83;20844;-71
2021/10/18 02:32:47;;;;;;;22.25;12.13;;;;;;;9.69;79.27;101427.30;1685830;83;21495;-71
2021/10/18 02:35:14;;;;;;;19.87;13.27;;;;;;;9.69;79.27;101427.30;1696295;83;21499;-71
2021/10/18 02:37:40;;;;;;;19.90;11.80;;;;;;;9.69;79.29;101428.58;1696955;83;21654;-71
2021/10/18 02:40:07;;;;;;;20.12;13.28;;;;;;;9.69;79.26;101431.59;1687864;83;21497;-71
2021/10/18 02:42:33;;;;;;;19.70;13.38;;;;;;;9.69;79.35;101432.89;1684101;83;21550;-72
2021/10/18 02:44:59;;;;;;;19.77;13.95;;;;;;;9.68;79.37;101433.75;1701588;83;20958;-72
2021/10/18 02:47:25;;;;;;;20.53;13.93;;;;;;;9.67;79.43;101429.44;1691990;83;21770;-72
2021/10/18 02:49:51;;;;;;;22.00;13.43;;;;;;;9.68;79.45;101437.19;1694473;84;21509;-72
2021/10/18 02:52:17;;;;;;;21.13;14.17;;;;;;;9.67;79.44;101437.19;1685278;84;21580;-72
2021/10/18 02:54:43;;;;;;;21.23;12.57;;;;;;;9.67;79.52;101441.06;1701884;82;21619;-72
2021/10/18 02:57:09;;;;;;;25.53;14.10;;;;;;;9.66;79.48;101440.20;1701758;83;21628;-72
2021/10/18 02:59:35;;;;;;;18.10;13.00;;;;;;;9.67;79.53;101439.34;1700968;82;21502;-71
2021/10/18 03:02:11;;;;;;;17.35;12.63;;;;;;;9.66;79.54;101441.49;1698493;82;21482;-72
2021/10/18 03:04:37;;;;;;;20.48;13.35;;;;;;;9.68;79.59;101443.64;1698196;84;20925;-72
2021/10/18 03:07:03;;;;;;;23.87;14.33;;;;;;;9.68;79.62;101444.94;1688451;82;20926;-71
2021/10/18 03:09:29;;;;;;;24.77;13.45;;;;;;;9.68;79.66;101442.36;1699975;83;21485;-71
2021/10/18 03:11:54;;;;;;;25.60;14.57;;;;;;;9.66;79.63;101433.75;1691696;82;20993;-72
2021/10/18 03:14:27;;;;;;;21.35;13.38;;;;;;;9.66;79.67;101436.33;1683113;84;21506;-72
2021/10/18 03:16:53;;;;;;;26.97;15.23;;;;;;;9.67;79.71;101433.31;1696717;84;20902;-72
2021/10/18 03:19:19;;;;;;;22.87;15.17;;;;;;;9.66;79.75;101432.45;1693602;83;20870;-71
2021/10/18 03:21:46;;;;;;;23.07;14.50;;;;;;;9.66;79.76;101439.34;1700052;83;21044;-71
2021/10/18 03:24:12;;;;;;;25.05;15.78;;;;;;;9.65;79.77;101438.91;1686630;84;21036;-71
2021/10/18 03:26:38;;;;;;;23.92;13.98;;;;;;;9.64;79.80;101447.09;1697136;84;21044;-71
2021/10/18 03:29:04;;;;;;;21.10;14.83;;;;;;;9.65;79.80;101453.97;1692783;83;21734;-71
2021/10/18 03:31:30;;;;;;;21.73;15.07;;;;;;;9.63;79.86;101451.39;1690915;82;21561;-72
2021/10/18 03:33:56;;;;;;;28.50;16.15;;;;;;;9.65;79.86;101455.69;1711534;82;20946;-72
2021/10/18 03:36:22;;;;;;;27.90;16.52;;;;;;;9.63;79.90;101459.13;1686517;83;21446;-72
2021/10/18 03:38:49;;;;;;;21.83;14.57;;;;;;;9.65;79.98;101460.43;1690976;83;20902;-72
2021/10/18 03:41:15;;;;;;;29.92;16.27;;;;;;;9.66;79.85;101469.90;1685207;82;21585;-72
2021/10/18 03:43:41;;;;;;;34.67;17.40;;;;;;;9.67;80.01;101473.34;1683893;82;21609;-72
2021/10/18 03:46:07;;;;;;;31.42;16.93;;;;;;;9.67;80.06;101469.47;1690113;83;21054;-72
2021/10/18 03:48:33;;;;;;;32.30;17.23;;;;;;;9.66;80.03;101472.48;1685039;84;21037;-72
2021/10/18 03:50:59;;;;;;;30.27;16.57;;;;;;;9.67;80.11;101473.34;1680895;83;21783;-72
2021/10/18 03:53:25;;;;;;;24.13;15.60;;;;;;;9.66;80.05;101475.49;1675679;83;21019;-72
2021/10/18 03:55:51;;;;;;;24.93;15.43;;;;;;;9.65;80.12;101474.63;1682717;84;21565;-71
2021/10/18 03:58:17;;;;;;;28.03;16.07;;;;;;;9.65;80.14;101482.38;1688124;83;20978;-71
2021/10/18 04:00:44;;;;;;;;;;;;;;;9.66;80.19;101482.81;1697393;83;21547;-72
2021/10/18 04:03:10;;;;;;;28.60;15.67;;;;;;;9.67;80.44;101487.55;1692335;83;20251;-72
2021/10/18 04:05:36;;;;;;;30.10;16.27;;;;;;;9.66;80.27;101485.39;1696078;83;21679;-72
2021/10/18 04:08:02;;;;;;;24.37;15.50;;;;;;;9.66;80.24;101481.95;1694793;83;21044;-72
2021/10/18 04:10:28;;;;;;;25.80;16.30;;;;;;;9.65;80.30;101490.13;1692229;84;21755;-72
2021/10/18 04:12:56;;;;;;;32.45;17.05;;;;;;;9.66;80.30;101493.56;1686900;83;21103;-70
2021/10/18 04:15:22;;;;;;;31.00;16.07;;;;;;;9.65;80.31;101494.42;1691158;84;20970;-70
2021/10/18 04:17:49;;;;;;;23.67;17.30;;;;;;;9.65;80.33;101494.42;1693819;83;21168;-70
2021/10/18 04:20:15;;;;;;;35.13;16.37;;;;;;;9.63;80.36;101496.58;1687374;84;21077;-70
2021/10/18 04:22:45;;;;;;;28.63;16.00;;;;;;;9.65;80.42;101497.02;1684922;83;21095;-70
2021/10/18 04:25:16;;;;;;;31.48;15.83;;;;;;;9.64;80.39;101501.31;1685755;84;21084;-70
2021/10/18 04:27:43;;;;;;;28.77;16.40;;;;;;;9.63;80.46;101497.87;1683432;83;21033;-70
2021/10/18 04:30:10;;;;;;;25.97;16.57;;;;;;;9.65;80.51;101503.04;1679782;84;21093;-70
2021/10/18 04:32:36;;;;;;;27.60;15.45;;;;;;;9.66;80.51;101502.61;1687364;84;21022;-70
2021/10/18 04:35:03;;;;;;;28.70;15.80;;;;;;;9.67;80.50;101502.61;1675752;84;21703;-70
2021/10/18 04:37:29;;;;;;;;;;;;;;;9.67;80.54;101508.20;1691851;84;20973;-71
2021/10/18 04:39:57;;;;;;;26.73;14.38;;;;;;;9.67;80.68;101506.91;1691594;83;20213;-71
2021/10/18 04:42:23;;;;;;;27.80;17.37;;;;;;;9.66;80.54;101507.34;1683722;84;21032;-71
2021/10/18 04:44:49;;;;;;;26.57;16.03;;;;;;;9.66;80.62;101509.06;1691383;84;20977;-71
2021/10/18 04:47:15;;;;;;;30.57;15.80;;;;;;;9.65;80.65;101512.08;1693293;84;21322;-71
2021/10/18 04:49:41;;;;;;;23.40;15.43;;;;;;;9.67;80.67;101515.52;1681067;84;21511;-71
2021/10/18 04:52:08;;;;;;;26.68;15.18;;;;;;;9.67;80.66;101522.41;1701032;82;21549;-70
2021/10/18 04:54:34;;;;;;;29.33;16.50;;;;;;;9.69;80.71;101523.27;1698513;83;23453;-71
2021/10/18 04:57:00;;;;;;;29.75;17.27;;;;;;;9.69;80.71;101524.56;1688783;83;21128;-71
2021/10/18 04:59:29;;;;;;;30.62;16.02;;;;;;;9.69;80.76;101506.48;1703060;83;20950;-71
2021/10/18 05:01:55;;;;;;;27.93;16.80;;;;;;;9.70;80.74;101512.09;1693029;82;21110;-71
2021/10/18 05:04:22;;;;;;;29.18;14.87;;;;;;;9.71;80.81;101518.55;1670859;83;21267;-71
2021/10/18 05:06:48;;;;;;;30.95;16.25;;;;;;;9.71;80.77;101523.71;1699527;84;21089;-71
2021/10/18 05:09:14;;;;;;;27.53;15.37;;;;;;;9.71;80.75;101525.43;1691582;82;20902;-71
2021/10/18 05:11:40;;;;;;;26.53;15.20;;;;;;;9.70;80.82;101537.48;1696915;82;21069;-71
2021/10/18 05:14:07;;;;;;;24.23;15.32;;;;;;;9.68;80.86;101535.75;1702818;82;20981;-71
2021/10/18 05:16:36;;;;;;;23.27;14.45;;;;;;;9.71;80.89;101540.50;1686687;82;21053;-71
2021/10/18 05:19:03;;;;;;;27.70;14.35;;;;;;;9.72;80.90;101540.93;1693342;84;21105;-71
2021/10/18 05:21:29;;;;;;;23.97;15.37;;;;;;;9.74;80.89;101547.39;1681836;84;21568;-71
2021/10/18 05:23:55;;;;;;;26.37;15.28;;;;;;;9.75;80.95;101549.11;1697639;82;21057;-71
2021/10/18 05:26:21;;;;;;;26.33;15.30;;;;;;;9.75;80.95;101551.27;1686506;82;21541;-71
2021/10/18 05:28:47;;;;;;;30.37;15.40;;;;;;;9.77;80.97;101553.86;1686968;82;21035;-71
2021/10/18 05:31:13;;;;;;;28.97;16.33;;;;;;;9.76;80.95;101554.28;1696038;82;21093;-71
2021/10/18 05:33:40;;;;;;;24.75;15.90;;;;;;;9.76;81.01;101558.16;1694414;82;21097;-71
2021/10/18 05:36:06;;;;;;;23.63;15.67;;;;;;;9.77;80.97;101559.02;1692815;83;21521;-71
2021/10/18 05:38:32;;;;;;;35.43;16.73;;;;;;;9.76;81.06;101563.33;1697210;84;21040;-70
2021/10/18 05:40:58;;;;;;;22.37;15.97;;;;;;;9.78;81.10;101559.45;1700352;84;21402;-70
2021/10/18 05:43:25;;;;;;;24.05;14.87;;;;;;;9.79;81.10;101567.20;1683398;82;21115;-70
2021/10/18 05:45:51;;;;;;;;;;;;;;;9.79;81.11;101569.80;1689337;82;21152;-70
2021/10/18 05:48:18;;;;;;;25.62;14.40;;;;;;;9.81;81.32;101580.13;1690304;82;20178;-69
2021/10/18 05:50:45;;;;;;;25.35;14.93;;;;;;;9.81;81.19;101578.41;1692359;83;21043;-70
2021/10/18 05:53:13;;;;;;;27.65;15.90;;;;;;;9.82;81.19;101578.84;1680766;82;20933;-70
2021/10/18 05:55:39;;;;;;;27.22;15.10;;;;;;;9.82;81.18;101574.10;1700325;83;21424;-69
2021/10/18 05:58:08;;;;;;;27.48;15.30;;;;;;;9.82;81.19;101581.85;1689468;82;20906;-69
2021/10/18 06:00:38;;;;;;;25.35;14.75;;;;;;;9.82;81.23;101580.56;1690208;84;20886;-70
2021/10/18 06:03:04;;;;;;;25.65;15.08;;;;;;;9.82;81.23;101581.85;1706209;82;21407;-70
2021/10/18 06:05:30;;;;;;;28.62;15.78;;;;;;;9.83;81.27;101583.15;1668915;84;20914;-70
2021/10/18 06:08:07;;;;;;;27.32;15.83;;;;;;;9.84;81.29;101584.88;1677779;84;21455;-70
2021/10/18 06:10:34;;;;;;;29.85;14.83;;;;;;;9.84;81.26;101585.30;1700703;82;20946;-70
2021/10/18 06:13:02;;;;;;;26.33;15.72;;;;;;;9.84;81.32;101586.16;1702228;83;20894;-70
2021/10/18 06:15:28;;;;;;;29.25;16.70;;;;;;;9.85;81.35;101584.02;1703049;83;22846;-70
2021/10/18 06:17:54;;;;;;;28.43;15.50;;;;;;;9.88;81.38;101592.17;1694206;82;20918;-70
2021/10/18 06:20:24;;;;;;;27.73;15.65;;;;;;;9.89;81.39;101597.34;1704668;82;21032;-70
2021/10/18 06:22:50;;;;;;;33.67;16.87;;;;;;;9.89;81.32;101609.39;1675158;83;21640;-70
2021/10/18 06:25:16;;;;;;;32.30;17.05;;;;;;;9.88;81.38;101608.53;1690820;82;21131;-70
2021/10/18 06:27:49;;;;;;;31.70;17.82;;;;;;;9.88;81.44;101610.25;1699317;83;21080;-70
2021/10/18 06:30:15;;;;;;;30.47;17.33;;;;;;;9.88;81.43;101619.30;1692529;83;21136;-70
2021/10/18 06:32:41;;;;;;;37.53;18.10;;;;;;;9.87;81.50;101628.80;1693980;84;21394;-70
2021/10/18 06:35:08;;;;;;;31.73;16.07;;;;;;;9.88;81.53;101624.03;1701226;82;21076;-70
2021/10/18 06:37:34;;;;;;;26.05;15.13;;;;;;;9.89;81.55;101627.48;1689325;82;21107;-70
2021/10/18 06:40:02;;;;;;;34.15;16.90;;;;;;;9.90;81.54;101631.78;1697185;84;20874;-70
2021/10/18 06:42:28;;;;;;;34.25;17.80;;;;;;;9.90;81.57;101624.90;1699697;82;20939;-70
2021/10/18 06:44:54;;;;;;;40.43;17.75;;;;;;;9.91;81.62;101627.91;1698402;82;20957;-70
2021/10/18 06:47:20;;;;;;;41.13;17.57;;;;;;;9.92;81.61;101619.73;1693038;82;21036;-70
2021/10/18 06:49:46;;;;;;;43.80;18.90;;;;;;;9.92;81.65;101627.48;1698317;82;20898;-70
2021/10/18 06:52:12;;;;;;;43.20;19.87;;;;;;;9.93;81.64;101633.95;1688820;82;20902;-70
2021/10/18 06:54:41;;;;;;;42.67;19.50;;;;;;;9.94;81.67;101636.11;1694658;82;21391;-70
2021/10/18 06:57:08;;;;;;;44.58;20.80;;;;;;;9.93;81.70;101633.95;1674553;83;20918;-70
2021/10/18 06:59:34;;;;;;;39.63;19.70;;;;;;;9.94;81.72;101640.84;1689238;82;20871;-70
2021/10/18 07:02:01;;;;;;;46.83;21.17;;;;;;;9.94;81.68;101639.98;1693138;82;20996;-70
2021/10/18 07:04:29;;;;;;;41.37;20.48;;;;;;;9.94;81.77;101641.27;1691923;82;20922;-70
2021/10/18 07:06:58;;;;;;;45.35;20.85;;;;;;;9.95;81.80;101639.98;1681370;83;20875;-70
2021/10/18 07:09:24;;;;;;;46.50;20.75;;;;;;;9.97;81.79;101642.57;1684487;83;20883;-70
2021/10/18 07:11:51;;;;;;;46.23;22.07;;;;;;;9.99;81.84;101643.44;1689137;84;20898;-70
2021/10/18 07:14:17;;;;;;;51.30;22.10;;;;;;;9.87;81.83;101624.92;1687694;83;21838;-70
2021/10/18 07:16:43;;;;;;;50.60;23.00;;;;;;;10.01;81.84;101649.91;1688723;84;20847;-70
2021/10/18 07:19:08;;;;;;;54.97;25.50;;;;;;;10.00;81.86;101647.75;1682903;84;21501;-70
2021/10/18 07:21:36;;;;;;;54.07;23.57;;;;;;;10.01;81.90;101647.32;1691978;83;26775;-70
2021/10/18 07:24:04;;;;;;;53.50;22.42;;;;;;;10.02;81.89;101653.79;1680082;83;21761;-70
2021/10/18 07:26:31;;;;;;;43.48;21.25;;;;;;;10.04;81.88;101660.25;1682837;84;20930;-72
2021/10/18 07:28:57;;;;;;;36.38;20.17;;;;;;;10.05;81.93;101662.84;1681552;84;27103;-71
2021/10/18 07:31:23;;;;;;;43.40;20.60;;;;;;;10.06;81.93;101661.12;1688265;83;20919;-71
2021/10/18 07:33:50;;;;;;;43.33;20.63;;;;;;;10.07;81.95;101671.89;1680632;83;20946;-71
2021/10/18 07:36:24;;;;;;;36.58;18.70;;;;;;;10.06;81.84;101668.88;1685112;83;20930;-71
2021/10/18 07:38:46;;;;;;;37.30;19.27;;;;;;;10.08;81.96;101678.36;1695206;83;20930;-71
2021/10/18 07:41:12;;;;;;;38.92;19.73;;;;;;;10.10;82.00;101684.82;1698489;83;20886;-71
2021/10/18 07:43:38;;;;;;;33.95;17.37;;;;;;;10.12;81.97;101685.69;1693960;84;20886;-71
2021/10/18 07:46:04;;;;;;;30.30;17.20;;;;;;;10.11;81.88;101686.55;1693492;82;22187;-71
2021/10/18 07:48:30;;;;;;;31.67;19.40;;;;;;;10.09;81.87;101688.27;1686747;82;21044;-71
2021/10/18 07:50:56;;;;;;;30.87;18.67;;;;;;;10.08;81.94;101687.40;1679704;83;21575;-71
2021/10/18 07:53:22;;;;;;;31.40;17.13;;;;;;;10.08;82.00;101687.83;1686558;83;21738;-72
2021/10/18 07:55:48;;;;;;;28.07;17.33;;;;;;;10.10;82.03;101686.11;1674109;84;21541;-72
2021/10/18 07:58:14;;;;;;;29.03;17.90;;;;;;;10.13;82.10;101683.11;1688791;83;21017;-72
2021/10/18 08:00:41;;;;;;;24.43;16.23;;;;;;;10.18;82.12;101679.25;1691678;83;21054;-72
2021/10/18 08:03:06;;;;;;;29.32;16.65;;;;;;;10.23;82.14;101677.57;1689795;82;20977;-71
2021/10/18 08:05:32;;;;;;;28.20;17.73;;;;;;;10.27;82.13;101676.72;1686455;82;21496;-72
2021/10/18 08:07:58;;;;;;;36.00;19.10;;;;;;;10.33;82.16;101674.15;1690499;84;21543;-71
2021/10/18 08:10:26;;;;;;;31.77;19.07;;;;;;;10.37;82.14;101673.30;1695744;83;21093;-77
2021/10/18 08:12:59;;;;;;;38.10;20.92;;;;;;;10.42;82.18;101668.10;1687878;82;21046;-74
2021/10/18 08:15:30;;;;;;;38.73;19.65;;;;;;;10.45;82.14;101669.40;1691317;83;20949;-70
2021/10/18 08:17:57;;;;;;;34.48;19.32;;;;;;;10.48;82.13;101668.97;1689332;83;21752;-71
2021/10/18 08:20:23;;;;;;;29.00;17.95;;;;;;;10.49;82.08;101674.58;1683581;83;21083;-71
2021/10/18 08:22:50;;;;;;;31.35;19.32;;;;;;;10.48;81.99;101678.45;1666624;84;21092;-70
2021/10/18 08:25:16;;;;;;;30.30;18.32;;;;;;;10.50;82.13;101677.59;1686275;84;21085;-70
2021/10/18 08:27:42;;;;;;;21.90;16.95;;;;;;;10.55;82.16;101688.81;1691434;83;20910;-70
2021/10/18 08:30:10;;;;;;;24.40;15.50;;;;;;;10.59;82.13;101682.78;1683676;84;20934;-70
2021/10/18 08:32:36;;;;;;;22.82;15.53;;;;;;;10.64;82.16;101679.34;1684360;82;21363;-70
2021/10/18 08:35:07;;;;;;;26.82;17.10;;;;;;;10.66;82.11;101684.08;1684713;84;20942;-70
2021/10/18 08:40:17;;;;;;;29.85;17.90;;;;;;;10.67;82.13;101698.73;1684319;84;20903;-70
2021/10/18 08:43:02;;;;;;;23.85;16.42;;;;;;;10.66;82.06;101699.60;1696742;83;20902;-71
2021/10/18 08:45:27;;;;;;;26.02;16.87;;;;;;;10.64;82.07;101700.89;1688988;83;20947;-71
2021/10/18 08:47:54;;;;;;;23.55;17.12;;;;;;;10.65;82.11;101703.91;1691628;84;20926;-71
2021/10/18 08:50:25;;;;;;;26.27;18.50;;;;;;;10.66;82.21;101703.05;1695340;82;20938;-71
2021/10/18 08:52:51;;;;;;;24.72;17.17;;;;;;;10.71;82.25;101704.34;1692354;84;21476;-71
2021/10/18 08:55:18;;;;;;;25.50;16.07;;;;;;;10.75;82.22;101707.38;1692920;82;21116;-71
2021/10/18 08:57:45;;;;;;;23.38;15.00;;;;;;;10.76;82.15;101708.66;1683879;82;21061;-71
2021/10/18 09:00:41;;;;;;;25.27;15.20;;;;;;;10.76;82.13;101712.55;1686579;84;21088;-71
2021/10/18 09:03:28;;;;;;;19.57;15.25;;;;;;;10.75;82.09;101706.94;1687158;82;21104;-71
2021/10/18 09:06:23;;;;;;;;;;;;;;;10.74;82.08;101713.41;1697364;84;20957;-71
2021/10/18 09:08:56;;;;;;;20.55;13.55;;;;;;;10.70;82.14;101713.83;1665662;84;20085;-71
2021/10/18 09:11:26;;;;;;;20.92;15.48;;;;;;;10.68;82.13;101718.14;1686537;84;20902;-71
2021/10/18 09:13:57;;;;;;;22.22;15.85;;;;;;;10.67;82.16;101716.42;1702323;83;20891;-71
2021/10/18 09:16:38;;;;;;;23.20;15.88;;;;;;;10.66;82.15;101715.98;1691773;84;20898;-71
2021/10/18 09:19:25;;;;;;;22.58;15.80;;;;;;;10.65;82.18;101707.79;1692515;82;20903;-71
2021/10/18 09:22:00;;;;;;;27.90;15.88;;;;;;;10.65;82.20;101713.39;1617311;86;20925;-71
2021/10/18 09:24:34;;;;;;;23.30;15.68;;;;;;;10.65;82.22;101715.55;1664533;84;20979;-71
2021/10/18 09:27:05;;;;;;;25.23;16.10;;;;;;;10.67;82.26;101716.42;1692011;84;20879;-71
2021/10/18 09:29:46;;;;;;;28.30;18.00;;;;;;;10.69;82.20;101717.71;1691803;82;20894;-71
2021/10/18 09:32:27;;;;;;;25.30;17.60;;;;;;;10.69;82.20;101721.59;1707410;82;20953;-71
2021/10/18 09:35:17;;;;;;;31.05;19.15;;;;;;;10.69;82.20;101715.13;1675894;83;34213;-71
2021/10/18 09:37:42;;;;;;;29.65;19.57;;;;;;;10.70;82.22;101720.30;1690956;83;21089;-71
2021/10/18 09:40:30;;;;;;;34.13;20.60;;;;;;;10.69;82.23;101720.30;1691424;83;20941;-71
2021/10/18 09:43:23;;;;;;;36.25;20.35;;;;;;;10.70;82.22;101718.14;1688326;82;26801;-71
2021/10/18 10:51:02;;;;;;;30.15;21.02;;;;;;;11.01;82.45;101711.23;1606631;86;21074;-71
2021/10/18 10:53:48;;;;;;;35.50;22.50;;;;;;;11.04;82.49;101709.51;1642736;85;20927;-71
2021/10/18 10:56:43;;;;;;;31.82;21.37;;;;;;;11.07;82.45;101714.69;1647339;85;20927;-71
2021/10/18 10:59:21;;;;;;;31.55;21.40;;;;;;;11.09;82.45;101714.25;1648878;86;20942;-71
2021/10/18 11:02:00;;;;;;;28.75;20.62;;;;;;;11.12;82.44;101718.13;1641310;85;20950;-71
2021/10/18 11:04:36;;;;;;;32.85;21.27;;;;;;;11.12;82.40;101710.37;1645351;85;20923;-71
2021/10/18 11:07:12;;;;;;;27.95;19.42;;;;;;;11.13;82.39;101712.52;1635322;85;20926;-71
2021/10/18 11:09:43;;;;;;;28.77;20.55;;;;;;;11.13;82.38;101712.52;1649622;85;20991;-71
2021/10/18 11:12:20;;;;;;;31.55;20.57;;;;;;;11.11;82.33;101709.08;1642354;85;21763;-71
2021/10/18 11:15:07;;;;;;;31.12;19.48;;;;;;;11.09;82.35;101708.22;1615909;86;20982;-71
2021/10/18 11:17:46;;;;;;;28.92;19.35;;;;;;;11.08;82.41;101706.05;1642782;86;20949;-71
2021/10/18 11:20:16;;;;;;;28.35;19.05;;;;;;;11.07;82.41;101708.64;1684094;83;20958;-71
2021/10/18 11:22:46;;;;;;;32.33;21.95;;;;;;;11.08;82.47;101705.20;1681880;83;20911;-71
2021/10/18 11:25:23;;;;;;;27.98;20.52;;;;;;;11.07;82.42;101700.45;1685131;83;20930;-71
2021/10/18 11:27:59;;;;;;;28.20;18.40;;;;;;;11.08;82.49;101701.31;1689763;83;21423;-71
2021/10/18 11:30:30;;;;;;;29.82;20.48;;;;;;;11.12;82.48;101697.42;1686336;83;21434;-71
2021/10/18 11:33:03;;;;;;;31.05;18.85;;;;;;;11.15;82.50;101692.67;1683189;84;21078;-71
2021/10/18 11:35:32;;;;;;;24.07;17.62;;;;;;;11.19;82.49;101697.84;1688274;84;21526;-71
2021/10/18 11:38:09;;;;;;;25.17;18.37;;;;;;;11.21;82.43;101697.42;1676811;83;22192;-70
2021/10/18 11:40:44;;;;;;;28.02;19.23;;;;;;;11.18;82.34;101704.33;1678278;84;21105;-70
2021/10/18 11:43:14;;;;;;;25.02;18.23;;;;;;;11.13;82.30;101704.76;1684043;83;21088;-70
2021/10/18 11:45:46;;;;;;;22.70;18.92;;;;;;;11.10;82.33;101704.76;1676864;83;20946;-70
2021/10/18 11:48:20;;;;;;;24.52;19.10;;;;;;;11.05;82.38;101702.61;1685139;83;20976;-70
2021/10/18 11:50:52;;;;;;;25.75;18.92;;;;;;;11.05;82.42;101687.08;1688912;83;20979;-70
2021/10/18 11:53:35;;;;;;;26.60;19.77;;;;;;;11.06;82.49;101680.61;1688591;84;20926;-70
2021/10/18 11:56:03;;;;;;;27.10;18.35;;;;;;;11.10;82.50;101676.29;1656319;85;21409;-70
2021/10/18 11:58:35;;;;;;;27.52;18.30;;;;;;;11.12;82.52;101679.30;1643477;85;20921;-70
2021/10/18 12:01:08;;;;;;;29.32;19.45;;;;;;;11.16;82.50;101681.02;1691679;82;21442;-70
2021/10/18 12:03:43;;;;;;;21.50;17.30;;;;;;;11.21;82.45;101674.55;1678750;83;21438;-70
2021/10/18 12:06:11;;;;;;;21.10;16.85;;;;;;;11.24;82.44;101666.34;1697937;83;20954;-70
2021/10/18 12:08:40;;;;;;;22.45;16.75;;;;;;;11.25;82.35;101669.80;1698215;82;20898;-70
2021/10/18 12:11:13;;;;;;;20.65;16.67;;;;;;;11.23;82.36;101676.27;1699357;82;21407;-70
2021/10/18 12:13:43;;;;;;;24.55;15.90;;;;;;;11.25;82.40;101674.97;1696519;82;21454;-70
2021/10/18 12:16:22;;;;;;;21.90;15.78;;;;;;;11.24;82.39;101680.59;1701044;82;21826;-70
2021/10/18 12:18:55;;;;;;;27.90;17.60;;;;;;;11.23;82.36;101681.45;1699090;82;21446;-70
2021/10/18 12:21:26;;;;;;;28.20;19.27;;;;;;;11.21;82.31;101684.91;1698858;84;21423;-70
2021/10/18 12:24:02;;;;;;;30.77;19.92;;;;;;;11.21;82.35;101679.73;1695316;82;21493;-70
2021/10/18 12:26:42;;;;;;;32.73;21.37;;;;;;;11.22;82.34;101680.16;1699054;84;20883;-70
2021/10/18 12:29:12;;;;;;;41.37;22.73;;;;;;;11.21;82.32;101682.31;1661377;85;21418;-70
2021/10/18 12:31:44;;;;;;;34.30;23.10;;;;;;;11.21;82.33;101678.44;1662409;84;21533;-70